sensor_id;sensor_type;location;lat;lon;timestamp;temperature;humidity
44166;DHT22;30476;53.468;9.826;2023-05-15T00:00:12;14.70;82.40
44166;DHT22;30476;53.468;9.826;2023-05-15T00:02:38;14.70;82.30
44166;DHT22;30476;53.468;9.826;2023-05-15T00:05:05;14.60;82.00
44166;DHT22;30476;53.468;9.826;2023-05-15T00:07:31;14.60;82.40
44166;DHT22;30476;53.468;9.826;2023-05-15T00:09:57;14.50;82.50
44166;DHT22;30476;53.468;9.826;2023-05-15T00:12:22;14.50;83.60
44166;DHT22;30476;53.468;9.826;2023-05-15T00:14:48;14.40;83.40
44166;DHT22;30476;53.468;9.826;2023-05-15T00:17:14;14.40;83.50
44166;DHT22;30476;53.468;9.826;2023-05-15T00:19:40;14.40;83.90
44166;DHT22;30476;53.468;9.826;2023-05-15T00:22:05;14.30;83.80
44166;DHT22;30476;53.468;9.826;2023-05-15T00:24:33;14.30;83.80
44166;DHT22;30476;53.468;9.826;2023-05-15T00:26:59;14.30;83.70
44166;DHT22;30476;53.468;9.826;2023-05-15T00:29:25;14.30;84.00
44166;DHT22;30476;53.468;9.826;2023-05-15T00:31:51;14.20;83.80
44166;DHT22;30476;53.468;9.826;2023-05-15T00:34:16;14.20;83.60
44166;DHT22;30476;53.468;9.826;2023-05-15T00:36:43;14.20;84.00
44166;DHT22;30476;53.468;9.826;2023-05-15T00:39:08;14.20;85.70
44166;DHT22;30476;53.468;9.826;2023-05-15T00:41:34;14.10;85.40
44166;DHT22;30476;53.468;9.826;2023-05-15T00:44:01;14.00;85.40
44166;DHT22;30476;53.468;9.826;2023-05-15T00:46:29;14.00;85.50
44166;DHT22;30476;53.468;9.826;2023-05-15T00:48:56;14.00;86.20
44166;DHT22;30476;53.468;9.826;2023-05-15T00:51:23;13.90;85.60
44166;DHT22;30476;53.468;9.826;2023-05-15T00:53:52;13.90;85.80
44166;DHT22;30476;53.468;9.826;2023-05-15T00:56:19;13.80;85.70
44166;DHT22;30476;53.468;9.826;2023-05-15T00:58:46;13.80;85.80
44166;DHT22;30476;53.468;9.826;2023-05-15T01:01:16;13.80;86.70
44166;DHT22;30476;53.468;9.826;2023-05-15T01:03:43;13.80;86.10
44166;DHT22;30476;53.468;9.826;2023-05-15T01:06:09;13.70;85.90
44166;DHT22;30476;53.468;9.826;2023-05-15T01:08:45;13.70;86.10
44166;DHT22;30476;53.468;9.826;2023-05-15T01:11:13;13.70;86.50
44166;DHT22;30476;53.468;9.826;2023-05-15T01:13:39;13.60;86.40
44166;DHT22;30476;53.468;9.826;2023-05-15T01:16:06;13.60;86.20
44166;DHT22;30476;53.468;9.826;2023-05-15T01:18:32;13.50;86.40
44166;DHT22;30476;53.468;9.826;2023-05-15T01:23:45;13.50;86.50
44166;DHT22;30476;53.468;9.826;2023-05-15T01:32:19;13.40;87.20
44166;DHT22;30476;53.468;9.826;2023-05-15T01:35:06;13.30;87.00
44166;DHT22;30476;53.468;9.826;2023-05-15T01:37:34;13.30;87.40
44166;DHT22;30476;53.468;9.826;2023-05-15T01:40:02;13.30;88.10
44166;DHT22;30476;53.468;9.826;2023-05-15T01:42:33;13.20;88.10
44166;DHT22;30476;53.468;9.826;2023-05-15T01:45:02;13.20;88.30
44166;DHT22;30476;53.468;9.826;2023-05-15T01:47:38;13.20;88.80
44166;DHT22;30476;53.468;9.826;2023-05-15T01:50:06;13.10;88.70
44166;DHT22;30476;53.468;9.826;2023-05-15T01:52:37;13.10;89.00
44166;DHT22;30476;53.468;9.826;2023-05-15T01:55:06;13.10;89.20
44166;DHT22;30476;53.468;9.826;2023-05-15T01:57:33;13.00;89.20
44166;DHT22;30476;53.468;9.826;2023-05-15T02:00:00;13.00;89.40
44166;DHT22;30476;53.468;9.826;2023-05-15T02:02:27;13.00;90.00
44166;DHT22;30476;53.468;9.826;2023-05-15T02:04:53;13.00;90.10
44166;DHT22;30476;53.468;9.826;2023-05-15T02:07:20;12.90;90.20
44166;DHT22;30476;53.468;9.826;2023-05-15T02:09:46;12.90;90.20
44166;DHT22;30476;53.468;9.826;2023-05-15T02:12:12;12.90;90.30
44166;DHT22;30476;53.468;9.826;2023-05-15T02:14:40;12.80;90.70
44166;DHT22;30476;53.468;9.826;2023-05-15T02:17:06;12.80;90.30
44166;DHT22;30476;53.468;9.826;2023-05-15T02:19:31;12.80;90.40
44166;DHT22;30476;53.468;9.826;2023-05-15T02:21:57;12.80;90.50
44166;DHT22;30476;53.468;9.826;2023-05-15T02:24:23;12.80;90.50
44166;DHT22;30476;53.468;9.826;2023-05-15T02:27:03;12.80;90.70
44166;DHT22;30476;53.468;9.826;2023-05-15T02:29:53;12.70;90.70
44166;DHT22;30476;53.468;9.826;2023-05-15T02:35:49;12.70;90.60
44166;DHT22;30476;53.468;9.826;2023-05-15T02:38:19;12.70;90.90
44166;DHT22;30476;53.468;9.826;2023-05-15T02:40:48;12.60;90.90
44166;DHT22;30476;53.468;9.826;2023-05-15T02:43:16;12.60;91.10
44166;DHT22;30476;53.468;9.826;2023-05-15T02:45:44;12.60;91.30
44166;DHT22;30476;53.468;9.826;2023-05-15T02:48:11;12.60;91.50
44166;DHT22;30476;53.468;9.826;2023-05-15T02:50:37;12.50;91.50
44166;DHT22;30476;53.468;9.826;2023-05-15T02:53:04;12.50;91.70
44166;DHT22;30476;53.468;9.826;2023-05-15T02:55:30;12.50;92.10
44166;DHT22;30476;53.468;9.826;2023-05-15T02:57:57;12.50;92.10
44166;DHT22;30476;53.468;9.826;2023-05-15T03:00:23;12.50;92.00
44166;DHT22;30476;53.468;9.826;2023-05-15T03:02:49;12.50;92.00
44166;DHT22;30476;53.468;9.826;2023-05-15T03:05:14;12.40;91.90
44166;DHT22;30476;53.468;9.826;2023-05-15T03:07:40;12.40;92.10
44166;DHT22;30476;53.468;9.826;2023-05-15T03:10:07;12.40;92.20
44166;DHT22;30476;53.468;9.826;2023-05-15T03:12:33;12.40;92.20
44166;DHT22;30476;53.468;9.826;2023-05-15T03:14:59;12.40;92.30
44166;DHT22;30476;53.468;9.826;2023-05-15T03:17:26;12.30;92.30
44166;DHT22;30476;53.468;9.826;2023-05-15T03:19:52;12.30;92.40
44166;DHT22;30476;53.468;9.826;2023-05-15T03:22:17;12.20;92.50
44166;DHT22;30476;53.468;9.826;2023-05-15T03:24:43;12.20;92.70
44166;DHT22;30476;53.468;9.826;2023-05-15T03:27:09;12.20;92.80
44166;DHT22;30476;53.468;9.826;2023-05-15T03:29:34;12.20;92.90
44166;DHT22;30476;53.468;9.826;2023-05-15T03:32:00;12.20;93.00
44166;DHT22;30476;53.468;9.826;2023-05-15T03:34:26;12.20;93.10
44166;DHT22;30476;53.468;9.826;2023-05-15T03:36:52;12.20;93.30
44166;DHT22;30476;53.468;9.826;2023-05-15T03:39:18;12.20;93.60
44166;DHT22;30476;53.468;9.826;2023-05-15T03:41:44;12.10;93.80
44166;DHT22;30476;53.468;9.826;2023-05-15T03:44:09;12.10;93.90
44166;DHT22;30476;53.468;9.826;2023-05-15T03:46:35;12.10;94.10
44166;DHT22;30476;53.468;9.826;2023-05-15T03:49:00;12.10;94.20
44166;DHT22;30476;53.468;9.826;2023-05-15T03:51:26;12.00;94.40
44166;DHT22;30476;53.468;9.826;2023-05-15T03:53:52;12.00;94.50
44166;DHT22;30476;53.468;9.826;2023-05-15T03:56:17;12.00;94.80
44166;DHT22;30476;53.468;9.826;2023-05-15T03:58:43;11.90;94.80
44166;DHT22;30476;53.468;9.826;2023-05-15T04:01:09;11.90;94.80
44166;DHT22;30476;53.468;9.826;2023-05-15T04:03:35;11.90;94.80
44166;DHT22;30476;53.468;9.826;2023-05-15T04:06:00;11.90;94.90
44166;DHT22;30476;53.468;9.826;2023-05-15T04:08:26;11.90;95.10
44166;DHT22;30476;53.468;9.826;2023-05-15T04:10:52;11.90;95.10
44166;DHT22;30476;53.468;9.826;2023-05-15T04:13:18;11.90;95.20
44166;DHT22;30476;53.468;9.826;2023-05-15T04:15:43;12.00;95.30
44166;DHT22;30476;53.468;9.826;2023-05-15T04:18:09;12.00;95.70
44166;DHT22;30476;53.468;9.826;2023-05-15T04:20:35;12.00;95.90
44166;DHT22;30476;53.468;9.826;2023-05-15T04:23:01;12.00;96.20
44166;DHT22;30476;53.468;9.826;2023-05-15T04:25:28;12.00;96.70
44166;DHT22;30476;53.468;9.826;2023-05-15T04:27:54;12.00;96.90
44166;DHT22;30476;53.468;9.826;2023-05-15T04:30:20;12.00;97.10
44166;DHT22;30476;53.468;9.826;2023-05-15T04:32:46;12.00;97.30
44166;DHT22;30476;53.468;9.826;2023-05-15T04:35:11;12.00;97.50
44166;DHT22;30476;53.468;9.826;2023-05-15T04:37:39;12.00;97.80
44166;DHT22;30476;53.468;9.826;2023-05-15T04:40:05;12.00;98.30
44166;DHT22;30476;53.468;9.826;2023-05-15T04:42:33;12.10;98.40
44166;DHT22;30476;53.468;9.826;2023-05-15T04:44:59;12.10;98.60
44166;DHT22;30476;53.468;9.826;2023-05-15T04:47:25;12.20;98.70
44166;DHT22;30476;53.468;9.826;2023-05-15T04:49:51;12.20;99.10
44166;DHT22;30476;53.468;9.826;2023-05-15T04:52:16;12.30;99.40
44166;DHT22;30476;53.468;9.826;2023-05-15T04:54:42;12.30;99.60
44166;DHT22;30476;53.468;9.826;2023-05-15T04:57:08;12.30;99.80
44166;DHT22;30476;53.468;9.826;2023-05-15T04:59:34;12.40;99.90
44166;DHT22;30476;53.468;9.826;2023-05-15T05:02:01;12.40;99.90
44166;DHT22;30476;53.468;9.826;2023-05-15T05:04:27;12.50;99.90
44166;DHT22;30476;53.468;9.826;2023-05-15T05:06:53;12.50;99.90
44166;DHT22;30476;53.468;9.826;2023-05-15T05:09:19;12.60;99.90
44166;DHT22;30476;53.468;9.826;2023-05-15T05:11:45;12.70;99.90
44166;DHT22;30476;53.468;9.826;2023-05-15T05:14:12;12.70;99.90
44166;DHT22;30476;53.468;9.826;2023-05-15T05:16:38;12.80;99.90
44166;DHT22;30476;53.468;9.826;2023-05-15T05:19:04;12.90;99.90
44166;DHT22;30476;53.468;9.826;2023-05-15T05:21:30;13.00;99.90
44166;DHT22;30476;53.468;9.826;2023-05-15T05:23:56;13.10;99.90
44166;DHT22;30476;53.468;9.826;2023-05-15T05:26:22;13.20;99.90
44166;DHT22;30476;53.468;9.826;2023-05-15T05:28:48;13.30;99.90
44166;DHT22;30476;53.468;9.826;2023-05-15T05:31:14;13.40;99.90
44166;DHT22;30476;53.468;9.826;2023-05-15T05:33:40;13.50;99.90
44166;DHT22;30476;53.468;9.826;2023-05-15T05:36:06;13.60;99.90
44166;DHT22;30476;53.468;9.826;2023-05-15T05:38:32;13.70;99.90
44166;DHT22;30476;53.468;9.826;2023-05-15T05:40:58;13.80;99.90
44166;DHT22;30476;53.468;9.826;2023-05-15T05:43:26;13.90;99.90
44166;DHT22;30476;53.468;9.826;2023-05-15T05:45:52;14.00;99.90
44166;DHT22;30476;53.468;9.826;2023-05-15T05:48:18;14.20;99.90
44166;DHT22;30476;53.468;9.826;2023-05-15T05:50:43;14.30;99.90
44166;DHT22;30476;53.468;9.826;2023-05-15T05:53:09;14.40;99.90
44166;DHT22;30476;53.468;9.826;2023-05-15T05:55:35;14.50;99.90
44166;DHT22;30476;53.468;9.826;2023-05-15T05:58:02;14.60;99.90
44166;DHT22;30476;53.468;9.826;2023-05-15T06:00:28;14.60;99.90
44166;DHT22;30476;53.468;9.826;2023-05-15T06:02:56;14.80;99.90
44166;DHT22;30476;53.468;9.826;2023-05-15T06:05:26;14.80;99.90
44166;DHT22;30476;53.468;9.826;2023-05-15T06:07:52;14.90;99.90
44166;DHT22;30476;53.468;9.826;2023-05-15T06:10:19;15.00;99.90
44166;DHT22;30476;53.468;9.826;2023-05-15T06:12:45;15.10;99.90
44166;DHT22;30476;53.468;9.826;2023-05-15T06:15:11;15.30;99.90
44166;DHT22;30476;53.468;9.826;2023-05-15T06:17:37;15.30;99.90
44166;DHT22;30476;53.468;9.826;2023-05-15T06:20:04;15.50;99.90
44166;DHT22;30476;53.468;9.826;2023-05-15T06:22:37;15.60;99.90
44166;DHT22;30476;53.468;9.826;2023-05-15T06:25:06;15.70;99.90
44166;DHT22;30476;53.468;9.826;2023-05-15T06:27:32;15.80;99.90
44166;DHT22;30476;53.468;9.826;2023-05-15T06:29:58;15.90;99.90
44166;DHT22;30476;53.468;9.826;2023-05-15T06:32:24;16.00;99.90
44166;DHT22;30476;53.468;9.826;2023-05-15T06:34:50;16.10;99.90
44166;DHT22;30476;53.468;9.826;2023-05-15T06:37:15;16.30;99.90
44166;DHT22;30476;53.468;9.826;2023-05-15T06:39:41;16.40;99.90
44166;DHT22;30476;53.468;9.826;2023-05-15T06:42:07;16.50;99.90
44166;DHT22;30476;53.468;9.826;2023-05-15T06:44:33;16.70;99.90
44166;DHT22;30476;53.468;9.826;2023-05-15T06:46:59;16.80;99.90
44166;DHT22;30476;53.468;9.826;2023-05-15T06:49:25;16.90;99.90
44166;DHT22;30476;53.468;9.826;2023-05-15T06:51:51;17.00;99.80
44166;DHT22;30476;53.468;9.826;2023-05-15T06:54:17;17.20;99.90
44166;DHT22;30476;53.468;9.826;2023-05-15T06:56:43;17.30;99.90
44166;DHT22;30476;53.468;9.826;2023-05-15T06:59:08;17.40;99.70
44166;DHT22;30476;53.468;9.826;2023-05-15T07:01:34;17.60;99.60
44166;DHT22;30476;53.468;9.826;2023-05-15T07:04:00;17.70;98.80
44166;DHT22;30476;53.468;9.826;2023-05-15T07:06:27;17.80;98.70
44166;DHT22;30476;53.468;9.826;2023-05-15T07:08:53;17.90;98.60
44166;DHT22;30476;53.468;9.826;2023-05-15T07:11:18;18.10;98.70
44166;DHT22;30476;53.468;9.826;2023-05-15T07:13:44;18.20;98.80
44166;DHT22;30476;53.468;9.826;2023-05-15T07:16:10;18.30;98.70
44166;DHT22;30476;53.468;9.826;2023-05-15T07:18:36;18.50;98.40
44166;DHT22;30476;53.468;9.826;2023-05-15T07:21:02;18.60;98.30
44166;DHT22;30476;53.468;9.826;2023-05-15T07:23:28;18.70;98.30
44166;DHT22;30476;53.468;9.826;2023-05-15T07:25:54;18.90;97.80
44166;DHT22;30476;53.468;9.826;2023-05-15T07:28:20;19.00;97.60
44166;DHT22;30476;53.468;9.826;2023-05-15T07:30:46;19.00;97.50
44166;DHT22;30476;53.468;9.826;2023-05-15T07:33:12;19.20;97.00
44166;DHT22;30476;53.468;9.826;2023-05-15T07:35:37;19.20;96.70
44166;DHT22;30476;53.468;9.826;2023-05-15T07:38:03;19.40;96.70
44166;DHT22;30476;53.468;9.826;2023-05-15T07:40:29;19.50;96.70
44166;DHT22;30476;53.468;9.826;2023-05-15T07:42:55;19.60;96.00
44166;DHT22;30476;53.468;9.826;2023-05-15T07:45:21;19.70;96.00
44166;DHT22;30476;53.468;9.826;2023-05-15T07:47:47;19.90;95.60
44166;DHT22;30476;53.468;9.826;2023-05-15T07:50:14;19.90;94.70
44166;DHT22;30476;53.468;9.826;2023-05-15T07:52:40;20.00;93.70
44166;DHT22;30476;53.468;9.826;2023-05-15T07:55:07;20.20;93.70
44166;DHT22;30476;53.468;9.826;2023-05-15T07:57:34;20.30;93.90
44166;DHT22;30476;53.468;9.826;2023-05-15T08:00:00;20.40;93.10
44166;DHT22;30476;53.468;9.826;2023-05-15T08:02:31;20.50;92.80
44166;DHT22;30476;53.468;9.826;2023-05-15T08:04:57;20.60;93.10
44166;DHT22;30476;53.468;9.826;2023-05-15T08:07:23;20.70;92.90
44166;DHT22;30476;53.468;9.826;2023-05-15T08:09:49;20.80;92.80
44166;DHT22;30476;53.468;9.826;2023-05-15T08:12:16;21.00;90.90
44166;DHT22;30476;53.468;9.826;2023-05-15T08:14:42;21.10;90.70
44166;DHT22;30476;53.468;9.826;2023-05-15T08:17:08;21.20;90.30
44166;DHT22;30476;53.468;9.826;2023-05-15T08:19:33;21.30;90.10
44166;DHT22;30476;53.468;9.826;2023-05-15T08:21:59;21.40;89.30
44166;DHT22;30476;53.468;9.826;2023-05-15T08:24:25;21.50;87.60
44166;DHT22;30476;53.468;9.826;2023-05-15T08:26:51;21.60;85.80
44166;DHT22;30476;53.468;9.826;2023-05-15T08:29:16;21.70;85.30
44166;DHT22;30476;53.468;9.826;2023-05-15T08:31:42;21.80;85.90
44166;DHT22;30476;53.468;9.826;2023-05-15T08:34:08;21.80;85.20
44166;DHT22;30476;53.468;9.826;2023-05-15T08:36:33;21.90;84.40
44166;DHT22;30476;53.468;9.826;2023-05-15T08:38:59;22.00;83.20
44166;DHT22;30476;53.468;9.826;2023-05-15T08:41:32;22.00;83.60
44166;DHT22;30476;53.468;9.826;2023-05-15T08:44:02;22.10;82.90
44166;DHT22;30476;53.468;9.826;2023-05-15T08:46:30;22.20;82.70
44166;DHT22;30476;53.468;9.826;2023-05-15T08:48:58;22.30;83.40
44166;DHT22;30476;53.468;9.826;2023-05-15T08:51:26;22.40;83.30
44166;DHT22;30476;53.468;9.826;2023-05-15T08:53:52;22.50;80.40
44166;DHT22;30476;53.468;9.826;2023-05-15T08:56:18;22.60;80.10
44166;DHT22;30476;53.468;9.826;2023-05-15T08:58:44;22.70;80.60
44166;DHT22;30476;53.468;9.826;2023-05-15T09:01:11;22.70;79.40
44166;DHT22;30476;53.468;9.826;2023-05-15T09:03:38;22.90;79.10
44166;DHT22;30476;53.468;9.826;2023-05-15T09:06:04;23.00;76.20
44166;DHT22;30476;53.468;9.826;2023-05-15T09:08:31;23.10;75.20
44166;DHT22;30476;53.468;9.826;2023-05-15T09:10:59;23.20;72.20
44166;DHT22;30476;53.468;9.826;2023-05-15T09:13:26;23.20;72.80
44166;DHT22;30476;53.468;9.826;2023-05-15T09:15:52;23.30;72.90
44166;DHT22;30476;53.468;9.826;2023-05-15T09:18:19;23.40;72.10
44166;DHT22;30476;53.468;9.826;2023-05-15T09:20:44;23.50;71.70
44166;DHT22;30476;53.468;9.826;2023-05-15T09:23:24;23.60;71.30
44166;DHT22;30476;53.468;9.826;2023-05-15T09:25:51;23.60;72.40
44166;DHT22;30476;53.468;9.826;2023-05-15T09:28:28;23.70;71.80
44166;DHT22;30476;53.468;9.826;2023-05-15T09:31:03;23.90;72.10
44166;DHT22;30476;53.468;9.826;2023-05-15T09:33:31;23.90;72.30
44166;DHT22;30476;53.468;9.826;2023-05-15T09:35:57;24.10;70.70
44166;DHT22;30476;53.468;9.826;2023-05-15T09:38:24;24.10;70.50
44166;DHT22;30476;53.468;9.826;2023-05-15T09:40:50;24.10;69.70
44166;DHT22;30476;53.468;9.826;2023-05-15T09:43:27;24.10;69.00
44166;DHT22;30476;53.468;9.826;2023-05-15T09:45:54;24.20;69.10
44166;DHT22;30476;53.468;9.826;2023-05-15T09:48:20;24.20;69.30
44166;DHT22;30476;53.468;9.826;2023-05-15T09:50:47;24.30;69.10
44166;DHT22;30476;53.468;9.826;2023-05-15T09:53:12;24.40;68.80
44166;DHT22;30476;53.468;9.826;2023-05-15T09:55:40;24.40;68.10
44166;DHT22;30476;53.468;9.826;2023-05-15T10:00:35;24.50;66.70
44166;DHT22;30476;53.468;9.826;2023-05-15T10:03:02;24.50;67.00
44166;DHT22;30476;53.468;9.826;2023-05-15T10:05:29;24.60;67.50
44166;DHT22;30476;53.468;9.826;2023-05-15T10:07:55;24.70;68.80
44166;DHT22;30476;53.468;9.826;2023-05-15T10:10:22;24.80;68.60
44166;DHT22;30476;53.468;9.826;2023-05-15T10:12:50;24.90;66.10
44166;DHT22;30476;53.468;9.826;2023-05-15T10:15:17;25.00;63.90
44166;DHT22;30476;53.468;9.826;2023-05-15T10:17:46;25.10;63.40
44166;DHT22;30476;53.468;9.826;2023-05-15T10:20:12;25.20;62.00
44166;DHT22;30476;53.468;9.826;2023-05-15T10:22:40;25.20;59.20
44166;DHT22;30476;53.468;9.826;2023-05-15T10:25:41;25.30;59.00
44166;DHT22;30476;53.468;9.826;2023-05-15T10:28:11;25.30;61.40
44166;DHT22;30476;53.468;9.826;2023-05-15T10:30:37;25.40;61.90
44166;DHT22;30476;53.468;9.826;2023-05-15T10:33:05;25.50;62.10
44166;DHT22;30476;53.468;9.826;2023-05-15T10:35:31;25.60;61.70
44166;DHT22;30476;53.468;9.826;2023-05-15T10:37:58;25.70;61.40
44166;DHT22;30476;53.468;9.826;2023-05-15T10:40:25;25.70;58.40
44166;DHT22;30476;53.468;9.826;2023-05-15T10:42:53;25.80;58.00
44166;DHT22;30476;53.468;9.826;2023-05-15T10:45:20;25.90;59.10
44166;DHT22;30476;53.468;9.826;2023-05-15T10:47:46;26.00;59.50
44166;DHT22;30476;53.468;9.826;2023-05-15T10:50:12;26.10;59.00
44166;DHT22;30476;53.468;9.826;2023-05-15T10:52:38;26.20;60.70
44166;DHT22;30476;53.468;9.826;2023-05-15T10:55:09;26.30;57.70
44166;DHT22;30476;53.468;9.826;2023-05-15T10:57:38;26.40;56.90
44166;DHT22;30476;53.468;9.826;2023-05-15T11:00:26;26.50;58.80
44166;DHT22;30476;53.468;9.826;2023-05-15T11:02:53;26.60;58.90
44166;DHT22;30476;53.468;9.826;2023-05-15T11:05:21;26.70;58.90
44166;DHT22;30476;53.468;9.826;2023-05-15T11:10:43;27.00;57.10
44166;DHT22;30476;53.468;9.826;2023-05-15T11:13:09;27.00;56.90
44166;DHT22;30476;53.468;9.826;2023-05-15T11:15:44;26.90;54.50
44166;DHT22;30476;53.468;9.826;2023-05-15T11:18:10;26.80;55.60
44166;DHT22;30476;53.468;9.826;2023-05-15T11:21:27;26.80;55.70
44166;DHT22;30476;53.468;9.826;2023-05-15T11:23:26;26.80;56.50
44166;DHT22;30476;53.468;9.826;2023-05-15T11:25:54;26.80;57.20
44166;DHT22;30476;53.468;9.826;2023-05-15T11:28:22;26.90;55.60
44166;DHT22;30476;53.468;9.826;2023-05-15T11:30:53;26.90;55.00
44166;DHT22;30476;53.468;9.826;2023-05-15T11:33:23;26.90;56.00
44166;DHT22;30476;53.468;9.826;2023-05-15T11:35:57;26.90;56.00
44166;DHT22;30476;53.468;9.826;2023-05-15T11:38:24;26.90;56.40
44166;DHT22;30476;53.468;9.826;2023-05-15T11:40:55;27.00;55.60
44166;DHT22;30476;53.468;9.826;2023-05-15T11:43:26;27.10;55.50
44166;DHT22;30476;53.468;9.826;2023-05-15T11:46:06;27.20;57.00
44166;DHT22;30476;53.468;9.826;2023-05-15T11:48:40;27.40;57.10
44166;DHT22;30476;53.468;9.826;2023-05-15T11:51:21;27.60;57.10
44166;DHT22;30476;53.468;9.826;2023-05-15T11:53:49;27.60;55.20
44166;DHT22;30476;53.468;9.826;2023-05-15T11:56:25;27.60;55.70
44166;DHT22;30476;53.468;9.826;2023-05-15T11:58:57;27.60;55.60
44166;DHT22;30476;53.468;9.826;2023-05-15T12:01:23;27.60;54.40
44166;DHT22;30476;53.468;9.826;2023-05-15T12:03:50;27.60;55.90
44166;DHT22;30476;53.468;9.826;2023-05-15T12:06:18;27.60;54.40
44166;DHT22;30476;53.468;9.826;2023-05-15T12:08:49;27.60;53.30
44166;DHT22;30476;53.468;9.826;2023-05-15T12:11:21;27.40;54.90
44166;DHT22;30476;53.468;9.826;2023-05-15T12:13:50;27.30;54.20
44166;DHT22;30476;53.468;9.826;2023-05-15T12:16:17;27.10;55.70
44166;DHT22;30476;53.468;9.826;2023-05-15T12:18:46;27.00;56.00
44166;DHT22;30476;53.468;9.826;2023-05-15T12:21:11;26.90;55.90
44166;DHT22;30476;53.468;9.826;2023-05-15T12:23:37;26.90;55.90
44166;DHT22;30476;53.468;9.826;2023-05-15T12:26:03;26.70;55.80
44166;DHT22;30476;53.468;9.826;2023-05-15T12:28:31;26.60;55.30
44166;DHT22;30476;53.468;9.826;2023-05-15T12:30:58;26.30;55.20
44166;DHT22;30476;53.468;9.826;2023-05-15T12:33:24;26.10;55.00
44166;DHT22;30476;53.468;9.826;2023-05-15T12:35:53;25.90;55.90
44166;DHT22;30476;53.468;9.826;2023-05-15T12:38:21;25.70;55.00
44166;DHT22;30476;53.468;9.826;2023-05-15T12:40:50;25.60;55.60
44166;DHT22;30476;53.468;9.826;2023-05-15T12:43:18;25.40;56.40
44166;DHT22;30476;53.468;9.826;2023-05-15T12:45:44;25.20;57.30
44166;DHT22;30476;53.468;9.826;2023-05-15T12:48:14;25.10;57.40
44166;DHT22;30476;53.468;9.826;2023-05-15T12:50:42;25.00;57.50
44166;DHT22;30476;53.468;9.826;2023-05-15T12:53:12;24.90;58.40
44166;DHT22;30476;53.468;9.826;2023-05-15T12:55:39;24.80;58.60
44166;DHT22;30476;53.468;9.826;2023-05-15T12:58:06;24.60;59.50
44166;DHT22;30476;53.468;9.826;2023-05-15T13:00:34;24.50;61.00
44166;DHT22;30476;53.468;9.826;2023-05-15T13:03:01;24.40;61.50
44166;DHT22;30476;53.468;9.826;2023-05-15T13:05:30;24.20;63.90
44166;DHT22;30476;53.468;9.826;2023-05-15T13:08:01;24.10;65.50
44166;DHT22;30476;53.468;9.826;2023-05-15T13:10:27;23.90;66.40
44166;DHT22;30476;53.468;9.826;2023-05-15T13:12:56;23.90;67.30
44166;DHT22;30476;53.468;9.826;2023-05-15T13:15:31;23.70;68.40
44166;DHT22;30476;53.468;9.826;2023-05-15T13:18:06;23.70;70.00
44166;DHT22;30476;53.468;9.826;2023-05-15T13:20:53;23.70;70.60
44166;DHT22;30476;53.468;9.826;2023-05-15T13:23:20;23.50;70.00
44166;DHT22;30476;53.468;9.826;2023-05-15T13:25:46;23.40;70.40
44166;DHT22;30476;53.468;9.826;2023-05-15T13:28:12;23.40;71.00
44166;DHT22;30476;53.468;9.826;2023-05-15T13:30:39;23.30;72.80
44166;DHT22;30476;53.468;9.826;2023-05-15T13:33:06;23.30;73.60
44166;DHT22;30476;53.468;9.826;2023-05-15T13:35:33;23.30;72.60
44166;DHT22;30476;53.468;9.826;2023-05-15T13:37:58;23.30;71.80
44166;DHT22;30476;53.468;9.826;2023-05-15T13:40:25;23.20;71.40
44166;DHT22;30476;53.468;9.826;2023-05-15T13:42:51;23.10;71.80
44166;DHT22;30476;53.468;9.826;2023-05-15T13:45:18;23.00;72.90
44166;DHT22;30476;53.468;9.826;2023-05-15T13:47:44;22.90;74.20
44166;DHT22;30476;53.468;9.826;2023-05-15T13:50:12;22.90;74.70
44166;DHT22;30476;53.468;9.826;2023-05-15T13:52:39;22.80;74.10
44166;DHT22;30476;53.468;9.826;2023-05-15T13:55:05;22.70;75.30
44166;DHT22;30476;53.468;9.826;2023-05-15T13:57:32;22.70;75.90
44166;DHT22;30476;53.468;9.826;2023-05-15T13:59:58;22.70;76.60
44166;DHT22;30476;53.468;9.826;2023-05-15T14:02:23;22.70;76.20
44166;DHT22;30476;53.468;9.826;2023-05-15T14:04:52;22.70;75.10
44166;DHT22;30476;53.468;9.826;2023-05-15T14:07:20;22.80;74.60
44166;DHT22;30476;53.468;9.826;2023-05-15T14:09:46;22.90;74.50
44166;DHT22;30476;53.468;9.826;2023-05-15T14:12:12;23.00;73.70
44166;DHT22;30476;53.468;9.826;2023-05-15T14:14:37;23.00;72.80
44166;DHT22;30476;53.468;9.826;2023-05-15T14:17:03;23.00;74.20
44166;DHT22;30476;53.468;9.826;2023-05-15T14:19:29;23.00;75.30
44166;DHT22;30476;53.468;9.826;2023-05-15T14:21:55;23.00;75.10
44166;DHT22;30476;53.468;9.826;2023-05-15T14:24:21;22.90;74.00
44166;DHT22;30476;53.468;9.826;2023-05-15T14:26:47;22.80;74.30
44166;DHT22;30476;53.468;9.826;2023-05-15T14:29:12;22.70;74.20
44166;DHT22;30476;53.468;9.826;2023-05-15T14:31:40;22.70;73.90
44166;DHT22;30476;53.468;9.826;2023-05-15T14:34:06;22.70;74.90
44166;DHT22;30476;53.468;9.826;2023-05-15T14:36:32;22.70;75.60
44166;DHT22;30476;53.468;9.826;2023-05-15T14:38:58;22.70;75.60
44166;DHT22;30476;53.468;9.826;2023-05-15T14:41:23;22.60;76.10
44166;DHT22;30476;53.468;9.826;2023-05-15T14:43:49;22.60;77.00
44166;DHT22;30476;53.468;9.826;2023-05-15T14:46:15;22.50;76.80
44166;DHT22;30476;53.468;9.826;2023-05-15T14:48:41;22.50;75.60
44166;DHT22;30476;53.468;9.826;2023-05-15T14:51:06;22.50;75.20
44166;DHT22;30476;53.468;9.826;2023-05-15T14:53:32;22.40;74.30
44166;DHT22;30476;53.468;9.826;2023-05-15T14:55:59;22.40;74.50
44166;DHT22;30476;53.468;9.826;2023-05-15T14:58:25;22.40;74.40
44166;DHT22;30476;53.468;9.826;2023-05-15T15:00:51;22.40;74.60
44166;DHT22;30476;53.468;9.826;2023-05-15T15:03:16;22.40;74.10
44166;DHT22;30476;53.468;9.826;2023-05-15T15:05:43;22.40;74.70
44166;DHT22;30476;53.468;9.826;2023-05-15T15:08:10;22.40;76.50
44166;DHT22;30476;53.468;9.826;2023-05-15T15:10:37;22.40;77.10
44166;DHT22;30476;53.468;9.826;2023-05-15T15:13:04;22.30;77.20
44166;DHT22;30476;53.468;9.826;2023-05-15T15:15:31;22.20;77.70
44166;DHT22;30476;53.468;9.826;2023-05-15T15:17:57;22.20;76.80
44166;DHT22;30476;53.468;9.826;2023-05-15T15:20:24;22.20;76.10
44166;DHT22;30476;53.468;9.826;2023-05-15T15:22:51;22.10;75.90
44166;DHT22;30476;53.468;9.826;2023-05-15T15:25:17;22.00;76.20
44166;DHT22;30476;53.468;9.826;2023-05-15T15:27:43;21.90;76.00
44166;DHT22;30476;53.468;9.826;2023-05-15T15:30:10;21.90;76.20
44166;DHT22;30476;53.468;9.826;2023-05-15T15:32:36;21.70;75.80
44166;DHT22;30476;53.468;9.826;2023-05-15T15:35:03;21.70;75.70
44166;DHT22;30476;53.468;9.826;2023-05-15T15:37:33;21.60;76.70
44166;DHT22;30476;53.468;9.826;2023-05-15T15:40:04;21.50;76.90
44166;DHT22;30476;53.468;9.826;2023-05-15T15:42:30;21.40;78.00
44166;DHT22;30476;53.468;9.826;2023-05-15T15:44:58;21.40;78.20
44166;DHT22;30476;53.468;9.826;2023-05-15T15:47:24;21.40;78.40